createdAt,value
2018-09-03T00:00:09.144Z,0.00
2018-09-03T00:01:09.185Z,0.00
2018-09-03T00:02:09.142Z,0.00
2018-09-03T00:03:09.190Z,0.00
2018-09-03T00:04:09.134Z,0.00
2018-09-03T00:05:09.126Z,0.00
2018-09-03T00:06:09.117Z,0.00
2018-09-03T00:07:09.125Z,0.00
2018-09-03T00:08:09.103Z,0.00
2018-09-03T00:09:09.087Z,0.00
2018-09-03T00:10:09.072Z,0.00
2018-09-03T00:11:09.061Z,0.00
2018-09-03T00:12:09.078Z,0.00
2018-09-03T00:13:09.041Z,0.00
2018-09-03T00:14:09.032Z,0.00
2018-09-03T00:15:09.016Z,0.00
2018-09-03T00:16:09.002Z,0.00
2018-09-03T00:17:09.018Z,0.00
2018-09-03T00:18:08.988Z,0.00
2018-09-03T00:19:08.944Z,0.00
2018-09-03T00:20:08.964Z,0.00
2018-09-03T00:21:08.910Z,0.00
2018-09-03T00:22:08.982Z,0.00
2018-09-03T00:23:08.931Z,0.00
2018-09-03T00:24:08.876Z,0.00
2018-09-03T00:25:08.912Z,0.00
2018-09-03T00:26:08.901Z,0.00
2018-09-03T00:27:08.904Z,0.00
2018-09-03T00:28:08.872Z,0.00
2018-09-03T00:29:08.865Z,0.00
2018-09-03T00:30:08.812Z,0.00
2018-09-03T00:31:08.795Z,0.00
2018-09-03T00:32:08.861Z,0.00
2018-09-03T00:33:08.825Z,0.00
2018-09-03T00:34:08.808Z,0.00
2018-09-03T00:35:08.798Z,0.00
2018-09-03T00:36:08.796Z,0.00
2018-09-03T00:37:08.821Z,0.00
2018-09-03T00:38:08.732Z,0.00
2018-09-03T00:39:08.821Z,0.00
2018-09-03T00:40:08.747Z,0.00
2018-09-03T00:41:08.735Z,0.00
2018-09-03T00:42:08.680Z,0.00
2018-09-03T00:43:08.896Z,0.00
2018-09-03T00:44:08.714Z,0.00
2018-09-03T00:45:08.687Z,0.00
2018-09-03T00:46:08.683Z,0.00
2018-09-03T00:47:08.665Z,0.00
2018-09-03T00:48:08.687Z,0.00
2018-09-03T00:49:08.649Z,0.00
2018-09-03T00:50:08.641Z,0.00
2018-09-03T00:51:08.625Z,0.00
2018-09-03T00:52:08.741Z,0.00
2018-09-03T00:53:08.628Z,0.00
2018-09-03T00:54:08.570Z,0.00
2018-09-03T00:55:08.585Z,0.00
2018-09-03T00:56:08.636Z,0.00
2018-09-03T00:57:08.521Z,0.00
2018-09-03T00:58:08.595Z,0.00
2018-09-03T00:59:08.546Z,0.00
2018-09-03T01:00:08.536Z,0.00
2018-09-03T01:01:08.522Z,0.00
2018-09-03T01:02:08.465Z,0.00
2018-09-03T01:03:08.513Z,0.00
2018-09-03T01:04:08.483Z,0.00
2018-09-03T01:05:08.478Z,0.00
2018-09-03T01:06:08.462Z,0.00
2018-09-03T01:07:08.452Z,0.00
2018-09-03T01:08:08.452Z,0.00
2018-09-03T01:09:08.432Z,0.00
2018-09-03T01:10:08.422Z,0.00
2018-09-03T01:11:08.418Z,0.00
2018-09-03T01:12:08.397Z,0.00
2018-09-03T01:13:08.405Z,0.00
2018-09-03T01:14:08.388Z,0.00
2018-09-03T01:15:08.368Z,0.00
2018-09-03T01:16:08.324Z,0.00
2018-09-03T01:17:08.298Z,0.00
2018-09-03T01:18:08.360Z,0.00
2018-09-03T01:19:08.324Z,0.00
2018-09-03T01:20:08.307Z,0.00
2018-09-03T01:21:08.299Z,0.00
2018-09-03T01:22:08.296Z,0.00
2018-09-03T01:23:08.307Z,0.00
2018-09-03T01:24:08.280Z,0.00
2018-09-03T01:25:08.256Z,0.00
2018-09-03T01:26:08.256Z,0.00
2018-09-03T01:27:08.231Z,0.00
2018-09-03T01:28:08.264Z,0.00
2018-09-03T01:29:08.217Z,0.00
2018-09-03T01:30:08.197Z,0.00
2018-09-03T01:31:08.193Z,0.00
2018-09-03T01:32:08.177Z,0.00
2018-09-03T01:33:08.212Z,0.00
2018-09-03T01:34:08.120Z,0.00
2018-09-03T01:35:08.152Z,0.00
2018-09-03T01:36:08.139Z,0.00
2018-09-03T01:37:08.127Z,0.00
2018-09-03T01:38:08.244Z,0.00
2018-09-03T01:39:08.107Z,0.00
2018-09-03T01:40:08.091Z,0.00
2018-09-03T01:41:08.100Z,0.00
2018-09-03T01:42:08.075Z,0.00
2018-09-03T01:43:08.094Z,0.00
2018-09-03T01:44:08.053Z,0.00
2018-09-03T01:45:08.063Z,0.00
2018-09-03T01:46:08.024Z,0.00
2018-09-03T01:47:08.017Z,0.00
2018-09-03T01:48:08.006Z,0.00
2018-09-03T01:49:07.978Z,0.00
2018-09-03T01:50:07.994Z,0.00
2018-09-03T01:51:07.944Z,0.00
2018-09-03T01:52:07.962Z,0.00
2018-09-03T01:53:07.953Z,0.00
2018-09-03T01:54:07.963Z,0.00
2018-09-03T01:55:07.891Z,0.00
2018-09-03T01:56:07.921Z,0.00
2018-09-03T01:57:07.862Z,0.00
2018-09-03T01:58:07.907Z,0.00
2018-09-03T01:59:08.005Z,0.00
2018-09-03T02:00:07.882Z,0.00
2018-09-03T02:01:07.905Z,0.00
2018-09-03T02:02:07.863Z,0.00
2018-09-03T02:03:07.811Z,0.00
2018-09-03T02:04:07.861Z,0.00
2018-09-03T02:05:07.850Z,0.00
2018-09-03T02:06:07.808Z,0.00
2018-09-03T02:07:07.806Z,0.00
2018-09-03T02:08:07.787Z,0.00
2018-09-03T02:09:07.803Z,0.00
2018-09-03T02:10:07.730Z,0.00
2018-09-03T02:11:07.756Z,0.00
2018-09-03T02:12:07.744Z,0.00
2018-09-03T02:13:07.776Z,0.00
2018-09-03T02:14:07.707Z,0.00
2018-09-03T02:15:07.710Z,0.00
2018-09-03T02:16:07.714Z,0.00
2018-09-03T02:17:07.668Z,0.00
2018-09-03T02:18:07.683Z,0.00
2018-09-03T02:19:07.646Z,0.00
2018-09-03T02:20:07.657Z,0.00
2018-09-03T02:21:07.650Z,0.00
2018-09-03T02:22:07.632Z,0.00
2018-09-03T02:23:07.634Z,0.00
2018-09-03T02:24:07.634Z,0.00
2018-09-03T02:25:07.608Z,0.00
2018-09-03T02:26:07.593Z,0.00
2018-09-03T02:27:07.545Z,0.00
2018-09-03T02:28:07.568Z,0.00
2018-09-03T02:29:07.603Z,0.00
2018-09-03T02:30:07.553Z,0.00
2018-09-03T02:31:07.560Z,0.00
2018-09-03T02:32:07.527Z,0.00
2018-09-03T02:33:07.480Z,0.00
2018-09-03T02:34:07.541Z,0.00
2018-09-03T02:35:07.501Z,0.00
2018-09-03T02:36:07.492Z,0.00
2018-09-03T02:37:07.428Z,0.00
2018-09-03T02:38:07.460Z,0.00
2018-09-03T02:39:07.476Z,0.00
2018-09-03T02:40:07.396Z,0.00
2018-09-03T02:41:07.383Z,0.00
2018-09-03T02:42:07.414Z,0.00
2018-09-03T02:43:07.419Z,0.00
2018-09-03T02:44:07.410Z,0.00
2018-09-03T02:45:07.384Z,0.00
2018-09-03T02:46:07.343Z,0.00
2018-09-03T02:47:07.366Z,0.00
2018-09-03T02:48:07.314Z,0.00
2018-09-03T02:49:07.372Z,0.00
2018-09-03T02:50:07.337Z,0.00
2018-09-03T02:51:07.325Z,0.00
2018-09-03T02:52:07.308Z,0.00
2018-09-03T02:53:07.306Z,0.00
2018-09-03T02:54:07.440Z,0.00
2018-09-03T02:55:07.274Z,0.00
2018-09-03T02:56:07.271Z,0.00
2018-09-03T02:57:07.262Z,0.00
2018-09-03T02:58:07.197Z,0.00
2018-09-03T02:59:07.259Z,0.00
2018-09-03T03:00:07.219Z,0.00
2018-09-03T03:01:07.226Z,0.00
2018-09-03T03:02:07.223Z,0.00
2018-09-03T03:03:07.200Z,0.00
2018-09-03T03:04:07.275Z,0.00
2018-09-03T03:05:07.168Z,0.00
2018-09-03T03:06:07.158Z,0.00
2018-09-03T03:07:07.145Z,0.00
2018-09-03T03:08:07.180Z,0.00
2018-09-03T03:09:07.105Z,0.00
2018-09-03T03:10:07.135Z,0.00
2018-09-03T03:11:07.106Z,0.00
2018-09-03T03:12:07.087Z,0.00
2018-09-03T03:13:07.078Z,0.00
2018-09-03T03:14:07.065Z,0.00
2018-09-03T03:15:07.010Z,0.00
2018-09-03T03:16:07.047Z,0.00
2018-09-03T03:17:07.036Z,0.00
2018-09-03T03:18:07.029Z,0.00
2018-09-03T03:19:07.039Z,0.00
2018-09-03T03:20:07.019Z,0.00
2018-09-03T03:21:06.988Z,0.00
2018-09-03T03:22:06.940Z,0.00
2018-09-03T03:23:06.970Z,0.00
2018-09-03T03:24:06.952Z,0.00
2018-09-03T03:25:06.967Z,0.00
2018-09-03T03:26:06.932Z,0.00
2018-09-03T03:27:06.924Z,0.00
2018-09-03T03:28:06.911Z,0.00
2018-09-03T03:29:06.912Z,0.00
2018-09-03T03:30:07.041Z,0.00
2018-09-03T03:31:06.889Z,0.00
2018-09-03T03:32:06.827Z,0.00
2018-09-03T03:33:06.815Z,0.00
2018-09-03T03:34:06.854Z,0.00
2018-09-03T03:35:06.878Z,0.00
2018-09-03T03:36:06.842Z,0.00
2018-09-03T03:37:06.812Z,0.00
2018-09-03T03:38:06.810Z,0.00
2018-09-03T03:39:06.796Z,0.00
2018-09-03T03:40:06.806Z,0.00
2018-09-03T03:41:06.771Z,0.00
2018-09-03T03:42:06.779Z,0.00
2018-09-03T03:43:06.747Z,0.00
2018-09-03T03:44:06.735Z,0.00
2018-09-03T03:45:06.705Z,0.00
2018-09-03T03:46:06.714Z,0.00
2018-09-03T03:47:06.711Z,0.00
2018-09-03T03:48:06.707Z,0.00
2018-09-03T03:49:06.711Z,0.00
2018-09-03T03:50:06.725Z,0.00
2018-09-03T03:51:06.619Z,0.00
2018-09-03T03:52:06.650Z,0.00
2018-09-03T03:53:06.641Z,0.00
2018-09-03T03:54:06.637Z,0.00
2018-09-03T03:55:06.755Z,0.00
2018-09-03T03:56:06.607Z,0.00
2018-09-03T03:57:06.566Z,0.00
2018-09-03T03:58:06.584Z,0.00
2018-09-03T03:59:06.578Z,0.00
2018-09-03T04:00:06.591Z,0.00
2018-09-03T04:01:06.534Z,0.00
2018-09-03T04:02:06.496Z,0.00
2018-09-03T04:03:06.597Z,0.00
2018-09-03T04:04:06.518Z,0.00
2018-09-03T04:05:06.511Z,0.00
2018-09-03T04:06:06.498Z,0.00
2018-09-03T04:07:06.472Z,0.00
2018-09-03T04:08:06.477Z,0.00
2018-09-03T04:09:06.470Z,0.00
2018-09-03T04:10:06.472Z,0.00
2018-09-03T04:11:06.451Z,0.00
2018-09-03T04:12:06.439Z,0.00
2018-09-03T04:13:06.420Z,0.00
2018-09-03T04:14:06.413Z,0.00
2018-09-03T04:15:06.413Z,0.00
2018-09-03T04:16:06.422Z,0.00
2018-09-03T04:17:06.380Z,0.00
2018-09-03T04:18:06.374Z,0.00
2018-09-03T04:19:06.368Z,0.00
2018-09-03T04:20:06.371Z,4.00
2018-09-03T04:21:06.342Z,4.00
2018-09-03T04:22:06.288Z,4.00
2018-09-03T04:23:06.379Z,0.00
2018-09-03T04:24:06.296Z,4.00
2018-09-03T04:25:06.310Z,4.00
2018-09-03T04:26:06.236Z,8.00
2018-09-03T04:27:06.270Z,4.00
2018-09-03T04:28:06.266Z,8.00
2018-09-03T04:29:06.204Z,8.00
2018-09-03T04:30:06.273Z,8.00
2018-09-03T04:31:06.222Z,12.00
2018-09-03T04:32:06.208Z,12.00
2018-09-03T04:33:06.199Z,16.00
2018-09-03T04:34:06.255Z,16.00
2018-09-03T04:35:06.181Z,20.00
2018-09-03T04:36:06.193Z,24.00
2018-09-03T04:37:06.157Z,32.00
2018-09-03T04:38:06.145Z,40.00
2018-09-03T04:39:06.101Z,48.00
2018-09-03T04:40:06.141Z,60.00
2018-09-03T04:41:06.105Z,64.00
2018-09-03T04:42:06.099Z,68.00
2018-09-03T04:43:06.096Z,72.00
2018-09-03T04:44:06.079Z,72.00
2018-09-03T04:45:06.069Z,76.00
2018-09-03T04:46:06.098Z,76.00
2018-09-03T04:47:06.050Z,80.00
2018-09-03T04:48:06.103Z,88.00
2018-09-03T04:49:06.034Z,96.00
2018-09-03T04:50:06.053Z,100.00
2018-09-03T04:51:06.027Z,100.00
2018-09-03T04:52:05.951Z,104.00
2018-09-03T04:53:05.980Z,104.00
2018-09-03T04:54:06.026Z,108.00
2018-09-03T04:55:06.063Z,120.00
2018-09-03T04:56:06.111Z,132.00
2018-09-03T04:57:05.938Z,144.00
2018-09-03T04:58:05.926Z,152.00
2018-09-03T04:59:05.917Z,164.00
2018-09-03T05:00:05.888Z,180.00
2018-09-03T05:01:05.878Z,196.00
2018-09-03T05:02:05.893Z,216.00
2018-09-03T05:03:05.827Z,240.00
2018-09-03T05:04:05.875Z,256.00
2018-09-03T05:05:05.856Z,268.00
2018-09-03T05:06:05.930Z,280.00
2018-09-03T05:07:05.794Z,292.00
2018-09-03T05:08:05.821Z,328.00
2018-09-03T05:09:05.813Z,380.00
2018-09-03T05:10:05.827Z,444.00
2018-09-03T05:11:05.814Z,504.00
2018-09-03T05:12:05.775Z,560.00
2018-09-03T05:13:05.762Z,608.00
2018-09-03T05:14:05.758Z,636.00
2018-09-03T05:15:05.759Z,636.00
2018-09-03T05:16:05.771Z,612.00
2018-09-03T05:17:05.722Z,592.00
2018-09-03T05:18:05.708Z,584.00
2018-09-03T05:19:05.695Z,592.00
2018-09-03T05:20:05.688Z,596.00
2018-09-03T05:21:05.700Z,588.00
2018-09-03T05:22:05.676Z,580.00
2018-09-03T05:23:05.607Z,572.00
2018-09-03T05:24:05.639Z,580.00
2018-09-03T05:25:05.635Z,604.00
2018-09-03T05:26:05.651Z,652.00
2018-09-03T05:27:05.611Z,704.00
2018-09-03T05:28:05.594Z,740.00
2018-09-03T05:29:05.586Z,760.00
2018-09-03T05:30:05.541Z,748.00
2018-09-03T05:31:05.607Z,724.00
2018-09-03T05:32:05.559Z,700.00
2018-09-03T05:33:05.547Z,704.00
2018-09-03T05:34:05.532Z,732.00
2018-09-03T05:35:05.474Z,780.00
2018-09-03T05:36:05.550Z,840.00
2018-09-03T05:37:05.501Z,888.00
2018-09-03T05:38:05.488Z,924.00
2018-09-03T05:39:05.477Z,960.00
2018-09-03T05:40:05.468Z,1012.00
2018-09-03T05:41:05.475Z,1076.00
2018-09-03T05:42:05.446Z,1148.00
2018-09-03T05:43:05.550Z,1212.00
2018-09-03T05:44:05.501Z,1252.00
2018-09-03T05:45:05.408Z,1276.00
2018-09-03T05:46:05.419Z,1260.00
2018-09-03T05:47:05.387Z,1220.00
2018-09-03T05:48:05.382Z,1180.00
2018-09-03T05:49:05.332Z,1148.00
2018-09-03T05:50:05.382Z,1132.00
2018-09-03T05:51:05.377Z,1144.00
2018-09-03T05:52:05.348Z,1200.00
2018-09-03T05:53:05.303Z,1312.00
2018-09-03T05:54:05.372Z,1484.00
2018-09-03T05:55:05.302Z,1692.00
2018-09-03T05:56:05.318Z,1868.00
2018-09-03T05:57:05.284Z,2020.00
2018-09-03T05:58:05.267Z,2196.00
2018-09-03T05:59:05.330Z,2388.00
2018-09-03T06:00:05.207Z,2504.00
2018-09-03T06:01:05.257Z,2532.00
2018-09-03T06:02:05.232Z,2536.00
2018-09-03T06:03:05.253Z,2584.00
2018-09-03T06:04:05.209Z,2748.00
2018-09-03T06:05:05.211Z,3000.00
2018-09-03T06:06:05.183Z,3304.00
2018-09-03T06:07:05.190Z,3592.00
2018-09-03T06:08:05.157Z,3728.00
2018-09-03T06:09:05.193Z,3740.00
2018-09-03T06:10:05.139Z,3676.00
2018-09-03T06:11:05.159Z,3532.00
2018-09-03T06:12:05.140Z,3436.00
2018-09-03T06:13:05.134Z,3420.00
2018-09-03T06:14:05.093Z,3488.00
2018-09-03T06:15:05.111Z,3640.00
2018-09-03T06:16:05.081Z,3788.00
2018-09-03T06:17:05.086Z,3876.00
2018-09-03T06:18:05.075Z,3952.00
2018-09-03T06:19:05.039Z,4060.00
2018-09-03T06:20:05.035Z,4216.00
2018-09-03T06:21:05.018Z,4520.00
2018-09-03T06:22:05.049Z,4840.00
2018-09-03T06:23:05.006Z,5156.00
2018-09-03T06:24:04.994Z,5404.00
2018-09-03T06:25:05.012Z,5556.00
2018-09-03T06:26:04.978Z,5568.00
2018-09-03T06:27:04.957Z,5500.00
2018-09-03T06:28:04.946Z,5416.00
2018-09-03T06:29:04.938Z,5352.00
2018-09-03T06:30:04.932Z,5312.00
2018-09-03T06:31:04.951Z,5216.00
2018-09-03T06:32:04.864Z,5016.00
2018-09-03T06:33:04.899Z,4756.00
2018-09-03T06:34:04.881Z,4600.00
2018-09-03T06:35:04.868Z,4576.00
2018-09-03T06:36:04.897Z,4592.00
2018-09-03T06:37:04.846Z,4552.00
2018-09-03T06:38:04.845Z,4524.00
2018-09-03T06:39:04.850Z,4448.00
2018-09-03T06:40:04.899Z,4304.00
2018-09-03T06:41:04.926Z,4144.00
2018-09-03T06:42:05.789Z,4076.00
2018-09-03T06:43:04.794Z,4064.00
2018-09-03T06:44:04.785Z,4148.00
2018-09-03T06:45:04.768Z,4424.00
2018-09-03T06:46:04.923Z,4852.00
2018-09-03T06:47:04.745Z,5228.00
2018-09-03T06:48:04.730Z,5576.00
2018-09-03T06:49:04.726Z,5776.00
2018-09-03T06:50:04.718Z,5764.00
2018-09-03T06:51:04.723Z,5800.00
2018-09-03T06:52:04.740Z,5732.00
2018-09-03T06:53:04.679Z,5408.00
2018-09-03T06:54:04.690Z,5128.00
2018-09-03T06:55:04.669Z,5024.00
2018-09-03T06:56:04.825Z,5016.00
2018-09-03T06:57:04.641Z,5016.00
2018-09-03T06:58:04.641Z,5048.00
2018-09-03T06:59:04.654Z,5100.00
2018-09-03T07:00:04.613Z,5092.00
2018-09-03T07:01:04.602Z,5132.00
2018-09-03T07:02:04.588Z,5228.00
2018-09-03T07:03:04.599Z,5320.00
2018-09-03T07:04:04.575Z,5420.00
2018-09-03T07:05:04.556Z,5632.00
2018-09-03T07:06:04.541Z,5992.00
2018-09-03T07:07:04.537Z,6436.00
2018-09-03T07:08:04.715Z,6792.00
2018-09-03T07:09:04.473Z,7160.00
2018-09-03T07:10:04.541Z,7560.00
2018-09-03T07:11:04.488Z,7968.00
2018-09-03T07:12:04.536Z,8224.00
2018-09-03T07:13:04.472Z,8004.00
2018-09-03T07:14:04.459Z,7312.00
2018-09-03T07:15:11.484Z,6548.00
2018-09-03T07:16:04.429Z,6012.00
2018-09-03T07:17:04.437Z,5784.00
2018-09-03T07:18:04.408Z,5804.00
2018-09-03T07:19:04.414Z,5968.00
2018-09-03T07:20:04.391Z,6164.00
2018-09-03T07:21:04.381Z,6244.00
2018-09-03T07:22:04.357Z,6196.00
2018-09-03T07:23:04.368Z,6124.00
2018-09-03T07:24:04.385Z,6080.00
2018-09-03T07:25:04.339Z,6132.00
2018-09-03T07:26:04.337Z,6348.00
2018-09-03T07:27:04.347Z,6564.00
2018-09-03T07:28:04.318Z,6616.00
2018-09-03T07:29:04.296Z,6632.00
2018-09-03T07:30:04.279Z,6620.00
2018-09-03T07:31:04.281Z,6408.00
2018-09-03T07:32:04.381Z,5820.00
2018-09-03T07:33:04.247Z,5100.00
2018-09-03T07:34:04.245Z,4596.00
2018-09-03T07:35:04.256Z,4404.00
2018-09-03T07:36:04.224Z,4372.00
2018-09-03T07:37:04.232Z,4356.00
2018-09-03T07:38:04.214Z,4288.00
2018-09-03T07:39:04.182Z,4168.00
2018-09-03T07:40:04.790Z,4048.00
2018-09-03T07:41:04.161Z,4076.00
2018-09-03T07:42:04.197Z,4240.00
2018-09-03T07:43:04.148Z,4504.00
2018-09-03T07:44:04.115Z,4884.00
2018-09-03T07:45:04.081Z,5252.00
2018-09-03T07:46:04.125Z,5380.00
2018-09-03T07:47:04.244Z,5240.00
2018-09-03T07:48:04.088Z,5020.00
2018-09-03T07:49:04.134Z,5036.00
2018-09-03T07:50:04.065Z,5380.00
2018-09-03T07:51:04.139Z,5924.00
2018-09-03T07:52:04.064Z,6640.00
2018-09-03T07:53:04.026Z,7620.00
2018-09-03T07:54:04.018Z,8572.00
2018-09-03T07:55:04.017Z,9216.00
2018-09-03T07:56:04.008Z,9440.00
2018-09-03T07:57:04.031Z,9308.00
2018-09-03T07:58:03.972Z,9056.00
2018-09-03T07:59:03.918Z,8756.00
2018-09-03T08:00:03.966Z,8380.00
2018-09-03T08:01:04.070Z,7972.00
2018-09-03T08:02:03.950Z,7680.00
2018-09-03T08:03:03.878Z,7552.00
2018-09-03T08:04:03.903Z,7576.00
2018-09-03T08:05:03.863Z,7916.00
2018-09-03T08:06:03.894Z,8368.00
2018-09-03T08:07:03.898Z,8856.00
2018-09-03T08:08:03.898Z,9504.00
2018-09-03T08:09:03.871Z,10048.00
2018-09-03T08:10:03.854Z,10528.00
2018-09-03T08:11:03.854Z,11104.00
2018-09-03T08:12:03.855Z,11216.00
2018-09-03T08:13:03.855Z,11260.00
2018-09-03T08:14:03.906Z,11232.00
2018-09-03T08:15:03.790Z,11008.00
2018-09-03T08:16:03.784Z,10552.00
2018-09-03T08:17:03.773Z,10272.00
2018-09-03T08:18:03.847Z,10400.00
2018-09-03T08:19:03.749Z,10484.00
2018-09-03T08:20:03.826Z,10108.00
2018-09-03T08:21:03.728Z,9528.00
2018-09-03T08:22:03.712Z,8688.00
2018-09-03T08:23:03.732Z,7820.00
2018-09-03T08:24:03.703Z,7328.00
2018-09-03T08:25:03.697Z,7168.00
2018-09-03T08:26:03.677Z,7052.00
2018-09-03T08:27:03.658Z,6988.00
2018-09-03T08:28:04.076Z,7100.00
2018-09-03T08:29:03.640Z,7064.00
2018-09-03T08:30:03.633Z,6560.00
2018-09-03T08:31:03.618Z,5808.00
2018-09-03T08:32:03.618Z,5104.00
2018-09-03T08:33:03.626Z,4736.00
2018-09-03T08:34:03.588Z,4744.00
2018-09-03T08:35:03.583Z,4880.00
2018-09-03T08:36:03.562Z,4968.00
2018-09-03T08:37:03.562Z,5196.00
2018-09-03T08:38:03.575Z,5816.00
2018-09-03T08:39:03.542Z,6820.00
2018-09-03T08:40:03.589Z,7916.00
2018-09-03T08:41:03.537Z,8860.00
2018-09-03T08:42:03.734Z,9584.00
2018-09-03T08:43:03.516Z,10184.00
2018-09-03T08:44:03.493Z,10652.00
2018-09-03T08:45:03.449Z,10984.00
2018-09-03T08:46:03.463Z,10972.00
2018-09-03T08:47:03.420Z,10568.00
2018-09-03T08:48:03.559Z,10212.00
2018-09-03T08:49:03.431Z,10440.00
2018-09-03T08:50:03.425Z,11172.00
2018-09-03T08:51:03.436Z,11760.00
2018-09-03T08:52:03.353Z,11724.00
2018-09-03T08:53:03.473Z,11168.00
2018-09-03T08:54:03.421Z,10708.00
2018-09-03T08:55:03.318Z,10784.00
2018-09-03T08:56:03.351Z,11244.00
2018-09-03T08:57:03.343Z,11732.00
2018-09-03T08:58:03.519Z,11864.00
2018-09-03T08:59:03.319Z,11332.00
2018-09-03T09:00:03.316Z,10452.00
2018-09-03T09:01:03.293Z,9636.00
2018-09-03T09:02:03.300Z,9216.00
2018-09-03T09:03:03.295Z,9088.00
2018-09-03T09:04:03.276Z,8912.00
2018-09-03T09:05:03.261Z,8588.00
2018-09-03T09:06:03.246Z,7992.00
2018-09-03T09:07:03.235Z,7228.00
2018-09-03T09:08:03.258Z,6376.00
2018-09-03T09:09:03.215Z,5580.00
2018-09-03T09:10:03.199Z,5256.00
2018-09-03T09:11:03.189Z,5432.00
2018-09-03T09:12:03.199Z,5768.00
2018-09-03T09:13:03.198Z,6136.00
2018-09-03T09:14:03.166Z,6356.00
2018-09-03T09:15:03.151Z,6588.00
2018-09-03T09:16:03.136Z,6808.00
2018-09-03T09:17:03.129Z,7036.00
2018-09-03T09:18:03.179Z,7380.00
2018-09-03T09:19:03.110Z,7932.00
2018-09-03T09:20:03.097Z,8756.00
2018-09-03T09:21:03.097Z,9632.00
2018-09-03T09:22:03.076Z,10140.00
2018-09-03T09:23:03.101Z,10100.00
2018-09-03T09:24:03.056Z,10052.00
2018-09-03T09:25:03.128Z,10520.00
2018-09-03T09:26:03.033Z,11784.00
2018-09-03T09:27:03.023Z,13168.00
2018-09-03T09:28:03.011Z,13936.00
2018-09-03T09:29:03.028Z,14072.00
2018-09-03T09:30:02.950Z,13484.00
2018-09-03T09:31:02.982Z,11664.00
2018-09-03T09:32:03.037Z,10364.00
2018-09-03T09:33:02.955Z,10048.00
2018-09-03T09:34:03.001Z,10396.00
2018-09-03T09:35:02.902Z,10988.00
2018-09-03T09:36:02.945Z,11716.00
2018-09-03T09:37:02.956Z,12300.00
2018-09-03T09:38:02.917Z,12704.00
2018-09-03T09:39:02.926Z,13180.00
2018-09-03T09:40:02.884Z,13716.00
2018-09-03T09:41:02.880Z,14096.00
2018-09-03T09:42:02.863Z,14652.00
2018-09-03T09:43:02.909Z,15624.00
2018-09-03T09:44:02.870Z,16572.00
2018-09-03T09:45:02.801Z,16632.00
2018-09-03T09:46:02.773Z,16468.00
2018-09-03T09:47:02.887Z,15776.00
2018-09-03T09:48:02.813Z,15064.00
2018-09-03T09:49:02.831Z,15104.00
2018-09-03T09:50:02.810Z,15480.00
2018-09-03T09:51:02.721Z,16668.00
2018-09-03T09:52:02.765Z,18272.00
2018-09-03T09:53:02.752Z,18880.00
2018-09-03T09:54:02.762Z,18624.00
2018-09-03T09:55:02.732Z,18176.00
2018-09-03T09:56:02.716Z,18048.00
2018-09-03T09:57:02.827Z,17824.00
2018-09-03T09:58:02.695Z,17792.00
2018-09-03T09:59:02.713Z,18080.00
2018-09-03T10:00:02.674Z,17760.00
2018-09-03T10:01:02.660Z,15400.00
2018-09-03T10:02:02.645Z,13444.00
2018-09-03T10:03:02.652Z,12236.00
2018-09-03T10:04:02.702Z,11636.00
2018-09-03T10:05:02.617Z,10804.00
2018-09-03T10:06:02.686Z,10004.00
2018-09-03T10:07:02.604Z,9840.00
2018-09-03T10:08:02.635Z,10004.00
2018-09-03T10:09:02.664Z,10444.00
2018-09-03T10:10:02.572Z,11512.00
2018-09-03T10:11:02.570Z,12988.00
2018-09-03T10:12:02.510Z,13784.00
2018-09-03T10:13:02.558Z,12884.00
2018-09-03T10:14:02.542Z,12068.00
2018-09-03T10:15:02.518Z,11912.00
2018-09-03T10:16:02.458Z,12028.00
2018-09-03T10:17:02.487Z,12144.00
2018-09-03T10:18:02.484Z,12572.00
2018-09-03T10:19:02.494Z,13268.00
2018-09-03T10:20:02.504Z,13492.00
2018-09-03T10:21:02.498Z,12644.00
2018-09-03T10:22:02.558Z,12196.00
2018-09-03T10:23:02.425Z,12964.00
2018-09-03T10:24:02.476Z,14756.00
2018-09-03T10:25:02.408Z,16856.00
2018-09-03T10:26:02.400Z,16708.00
2018-09-03T10:27:02.389Z,15564.00
2018-09-03T10:28:02.372Z,14208.00
2018-09-03T10:29:02.385Z,13680.00
2018-09-03T10:30:02.350Z,12312.00
2018-09-03T10:31:02.342Z,10680.00
2018-09-03T10:32:02.360Z,9628.00
2018-09-03T10:33:02.322Z,9676.00
2018-09-03T10:34:02.335Z,10128.00
2018-09-03T10:35:02.303Z,11144.00
2018-09-03T10:36:02.349Z,12396.00
2018-09-03T10:37:02.276Z,12392.00
2018-09-03T10:38:02.378Z,11892.00
2018-09-03T10:39:02.289Z,11240.00
2018-09-03T10:40:02.261Z,10688.00
2018-09-03T10:41:02.252Z,10268.00
2018-09-03T10:42:02.235Z,10052.00
2018-09-03T10:43:02.302Z,10020.00
2018-09-03T10:44:02.192Z,10120.00
2018-09-03T10:45:02.203Z,10180.00
2018-09-03T10:46:02.180Z,10248.00
2018-09-03T10:47:02.232Z,10388.00
2018-09-03T10:48:02.159Z,10628.00
2018-09-03T10:49:02.146Z,10868.00
2018-09-03T10:50:02.261Z,11120.00
2018-09-03T10:51:02.096Z,11388.00
2018-09-03T10:52:02.219Z,11664.00
2018-09-03T10:53:02.066Z,12008.00
2018-09-03T10:54:02.219Z,12200.00
2018-09-03T10:55:02.111Z,12384.00
2018-09-03T10:56:02.098Z,12744.00
2018-09-03T10:57:02.076Z,13288.00
2018-09-03T10:58:02.073Z,13588.00
2018-09-03T10:59:02.053Z,13736.00
2018-09-03T11:00:02.146Z,13644.00
2018-09-03T11:01:02.027Z,13568.00
2018-09-03T11:02:02.034Z,13520.00
2018-09-03T11:03:02.006Z,13496.00
2018-09-03T11:04:02.011Z,13848.00
2018-09-03T11:05:02.006Z,14528.00
2018-09-03T11:06:01.979Z,15096.00
2018-09-03T11:07:01.960Z,15164.00
2018-09-03T11:08:01.957Z,14864.00
2018-09-03T11:09:01.971Z,14544.00
2018-09-03T11:10:01.951Z,14424.00
2018-09-03T11:11:01.919Z,14596.00
2018-09-03T11:12:01.866Z,14812.00
2018-09-03T11:13:01.904Z,15004.00
2018-09-03T11:14:01.883Z,15380.00
2018-09-03T11:15:02.003Z,16004.00
2018-09-03T11:16:01.881Z,16572.00
2018-09-03T11:17:01.823Z,16680.00
2018-09-03T11:18:01.853Z,16484.00
2018-09-03T11:19:01.855Z,16108.00
2018-09-03T11:20:01.917Z,15712.00
2018-09-03T11:21:01.821Z,15404.00
2018-09-03T11:22:01.800Z,15288.00
2018-09-03T11:23:01.794Z,15492.00
2018-09-03T11:24:01.869Z,15956.00
2018-09-03T11:25:01.813Z,16532.00
2018-09-03T11:26:01.786Z,16992.00
2018-09-03T11:27:01.707Z,16992.00
2018-09-03T11:28:01.760Z,16760.00
2018-09-03T11:29:01.738Z,16664.00
2018-09-03T11:30:01.743Z,16576.00
2018-09-03T11:31:01.710Z,16592.00
2018-09-03T11:32:01.697Z,16928.00
2018-09-03T11:33:01.693Z,17088.00
2018-09-03T11:34:01.696Z,17088.00
2018-09-03T11:35:01.706Z,17024.00
2018-09-03T11:36:01.656Z,16960.00
2018-09-03T11:37:01.657Z,16928.00
2018-09-03T11:38:01.639Z,16896.00
2018-09-03T11:39:01.624Z,16720.00
2018-09-03T11:40:01.620Z,16636.00
2018-09-03T11:41:01.616Z,16544.00
2018-09-03T11:42:01.603Z,16548.00
2018-09-03T11:43:01.594Z,16632.00
2018-09-03T11:44:01.568Z,16960.00
2018-09-03T11:45:01.562Z,17216.00
2018-09-03T11:46:01.655Z,17408.00
2018-09-03T11:47:01.683Z,17536.00
2018-09-03T11:48:01.521Z,17600.00
2018-09-03T11:49:01.516Z,17632.00
2018-09-03T11:50:01.512Z,17664.00
2018-09-03T11:51:01.613Z,17696.00
2018-09-03T11:52:01.481Z,17696.00
2018-09-03T11:53:01.452Z,17760.00
2018-09-03T11:54:01.418Z,17792.00
2018-09-03T11:55:01.448Z,17792.00
2018-09-03T11:56:01.531Z,17792.00
2018-09-03T11:57:01.391Z,17696.00
2018-09-03T11:58:01.435Z,17536.00
2018-09-03T11:59:01.404Z,17344.00
2018-09-03T12:00:01.427Z,17152.00
2018-09-03T12:01:01.427Z,17056.00
2018-09-03T12:02:01.405Z,17024.00
2018-09-03T12:03:01.373Z,16960.00
2018-09-03T12:04:01.371Z,16768.00
2018-09-03T12:05:01.357Z,16724.00
2018-09-03T12:06:01.327Z,16728.00
2018-09-03T12:07:01.328Z,16640.00
2018-09-03T12:08:01.323Z,16544.00
2018-09-03T12:09:01.317Z,16360.00
2018-09-03T12:10:01.309Z,16032.00
2018-09-03T12:11:01.321Z,15688.00
2018-09-03T12:12:01.843Z,15380.00
2018-09-03T12:13:01.263Z,15140.00
2018-09-03T12:14:01.262Z,14972.00
2018-09-03T12:15:01.243Z,14764.00
2018-09-03T12:16:01.304Z,14484.00
2018-09-03T12:17:01.255Z,14268.00
2018-09-03T12:18:01.172Z,14148.00
2018-09-03T12:19:01.256Z,14072.00
2018-09-03T12:20:01.191Z,14040.00
2018-09-03T12:21:01.202Z,13996.00
2018-09-03T12:22:01.190Z,13700.00
2018-09-03T12:23:01.161Z,13084.00
2018-09-03T12:24:08.161Z,12420.00
2018-09-03T12:25:01.139Z,11792.00
2018-09-03T12:26:01.124Z,11452.00